Terminal Aerodrome Forecast
Issued by NWS

Home | Current Version | Previous Version | Text Only | Print | Product List | Glossary On
Versions: 1 2 3 4 5 6 7 8 9 10 11 12 13 14 15 16
000
FTUS44 KEWX 011700
TAFSSF
TAF
KSSF 011727Z 0118/0218 18010KT P6SM SCT050
     FM020700 15005KT P6SM OVC015
     FM020900 15005KT P6SM OVC009
     FM021200 15005KT P6SM OVC015
     FM021700 17010KT P6SM BKN050=

USA.gov is the U.S. government's official web portal to all federal, state and local government web resources and services.